Details From EDDL - Duesseldorf
To EDLV - Niederrhein
Flight Number -
Tags Generated
Created
Modified
Stats Distance 30 nm / 56 km
Max Altitude 0 ft / 0 m
Waypoints 2
Social Downloads 2
Likes 0
Share VATSIM

Download

Looking for another format? Having issues loading an existing format? Contact us
Advertisement - Login to hide

Notes

Generated

Route

EDDL EDLV

ID Type Via Altitude Latitude Longitude Leg Dist Tot Dist Heading (true) Name
O EDDL APT - 0 ft / 0 m 51.28373˚ 6.74873˚ - 0 nm - -
O EDLV APT - 0 ft / 0 m 51.60284˚ 6.12454˚ 30 nm 30 nm 310° / 309° -

Altitude Profile

Advertisement - Login to hide

EDDL

Details ICAO EDDL (DUS)
Name Duesseldorf
Region Germany - Civil
Timezone Europe/Berlin (UTC+2.0)
Stats Elevation 146 ft / 45 m (AMSL)
Location 51.289419° 6.766637°
Runways 2
Magnetic Variation 1.867° E

METAR

EDDL 251620Z 03006KT 360V110 9999 FEW040TCU BKN300 25/15 Q1017 NOSIG

Decode

TAF

TAF EDDL 251100Z 2512/2618 11005KT 9999 SCT030 BECMG 2512/2515 05005KT PROB30 TEMPO 2513/2515 TSRA SCT030CB

Decode

Departure Runways

ID Width Length Bearing (true) Bearing (mag) Surface Threshold Offset Overrun Length
05L 148 ft / 45 m 8,895 ft / 2,711 m 52.72° 50.85° Concrete 994 ft / 303 m 906 ft / 276 m
05R 148 ft / 45 m 9,858 ft / 3,005 m 52.68° 50.81° Concrete 984 ft / 300 m 659 ft / 201 m
23L 148 ft / 45 m 9,858 ft / 3,005 m 232.71° 230.84° Concrete 984 ft / 300 m 702 ft / 214 m
23R 148 ft / 45 m 8,895 ft / 2,711 m 232.75° 230.88° Concrete 971 ft / 296 m 928 ft / 283 m

EDLV

Details ICAO EDLV (NRN)
Name NIEDERRHEIN
Region Germany - Civil
Timezone Europe/Berlin (UTC+2.0)
Stats Elevation 106 ft / 32 m (AMSL)
Location 51.602455° 6.142132°
Runways 1
Magnetic Variation 1.666° E

METAR

EDLV 251620Z 10004KT 040V150 9999 SCT045TCU 25/16 Q1017

Decode

TAF

TAF EDLV 251100Z 2512/2612 05004KT 9999 SCT030 PROB30 TEMPO 2513/2515 TSRA SCT030CB

Decode

Destination Runways

ID Width Length Bearing (true) Bearing (mag) Surface Threshold Offset Overrun Length
09 148 ft / 45 m 7,981 ft / 2,433 m 92.02° 90.35° Asphalt 0 ft / 0 m 902 ft / 275 m
27 148 ft / 45 m 7,981 ft / 2,433 m 272.05° 270.38° Asphalt 0 ft / 0 m 902 ft / 275 m

Approach Navaids

Runway Type Ident Frequency Range Bearing (true) Bearing (mag) Slope Elevation
27 Localiser INIW 110.70 MHz 18 nm / 33 km 271.93° 270.26° - 106 ft / 32 m (AMSL)
27 Glidescope INIW 110.70 MHz 10 nm / 19 km 272.04° 270.37° 3.00° 106 ft / 32 m (AMSL)

Popular Alternatives